• Join FlightAware (Why Join?)
  • Login
  • US Flag 
06:12AM EDT


 

Airport Tracker/Info


-or-


 

Live Flight TrackerFlight Track Log ✈ EJM826 ✈ 15-Dec-2013 ✈ KGYY - KHOU

Flight Track Log - Related Links

Times and Time Zones

All times are in EST time to prevent confusion due to time zone crossing. See the EJM826 flight status page for this flight to view local times or setup timezone preferences in your user account.

Time Position Orientation Groundspeed Altitude Reporting Facility
EST Latitude Longitude Course Direction KTS MPH feet Rate Location/Type
03:30PM 41.6167 -87.4500 252° West 175 201 1,900  Level Chicago TRACON
03:31PM 41.6000 -87.5167 252° West 218 251 3,000 1,260 Climbing Chicago TRACON
03:32PM 41.5725 -87.5936 244° Southwest 219 252 4,700 2,700 Climbing Chicago Center
03:33PM 41.5139 -87.6478 215° Southwest 265 305 8,700 3,780 Climbing Chicago Center
03:34PM 41.4339 -87.7089 210° Southwest 274 315 12,600 3,240 Climbing Chicago Center
03:35PM 41.3603 -87.7622 209° Southwest 295 339 15,500 2,760 Climbing Chicago Center
03:36PM 41.2803 -87.8186 208° Southwest 317 365 18,400 2,580 Climbing Chicago Center
03:37PM 41.1950 -87.8781 208° Southwest 336 387 20,900 2,460 Climbing Chicago Center
03:38PM 41.1072 -87.9397 208° Southwest 351 404 23,500 2,520 Climbing Chicago Center
03:39PM 41.0183 -88.0022 208° Southwest 357 411 26,100 1,980 Climbing Chicago Center
03:41PM 40.8550 -88.1172 208° Southwest 373 429 29,400 1,620 Climbing Kansas City Center
03:42PM 40.7564 -88.1856 208° Southwest 394 453 30,900 1,440 Climbing Kansas City Center
03:43PM 40.6583 -88.2542 208° Southwest 396 456 32,400 1,800 Climbing Kansas City Center
03:44PM 40.5339 -88.3403 208° Southwest 414 476 34,600 1,860 Climbing Kansas City Center
03:45PM 40.4336 -88.4108 208° Southwest 411 473 36,200 2,040 Climbing Kansas City Center
03:46PM 40.3181 -88.4903 208° Southwest 402 463 39,300 1,560 Climbing Chicago Center
03:47PM 40.2239 -88.5539 207° Southwest 380 437 39,800 540 Climbing Chicago Center
03:48PM 40.1264 -88.6203 208° Southwest 391 450 40,500 900 Climbing Chicago Center
03:49PM 40.0261 -88.6897 208° Southwest 403 464 41,700 1,200 Climbing Chicago Center
03:50PM 39.9122 -88.7700 208° Southwest 387 445 43,000 660 Climbing Chicago Center
03:51PM 39.8339 -88.8258 209° Southwest 387 445 43,000  Level Kansas City Center
03:52PM 39.7339 -88.8967 209° Southwest 401 461 43,000  Level Kansas City Center
03:53PM 39.6325 -88.9669 208° Southwest 409 471 43,000  Level Kansas City Center
03:54PM 39.5311 -89.0389 209° Southwest 412 474 43,000  Level Kansas City Center
03:55PM 39.4144 -89.1189 208° Southwest 419 482 43,000  Level Kansas City Center
03:56PM 39.3128 -89.1894 208° Southwest 416 479 43,000  Level Kansas City Center
03:57PM 39.2114 -89.2597 208° Southwest 416 479 43,000  Level Kansas City Center
03:58PM 39.1089 -89.3297 208° Southwest 416 479 43,000  Level Kansas City Center
03:59PM 39.0058 -89.4008 208° Southwest 418 481 43,000  Level Kansas City Center
04:01PM 38.9019 -89.4728 208° Southwest 423 487 43,000  Level Kansas City Center
04:02PM 38.7969 -89.5439 208° Southwest 425 489 43,000  Level Kansas City Center
04:03PM 38.6689 -89.6319 208° Southwest 432 497 43,000  Level Kansas City Center
04:04PM 38.5617 -89.7031 207° Southwest 432 497 43,000  Level Kansas City Center
04:05PM 38.4544 -89.7758 208° Southwest 433 498 43,000  Level Kansas City Center
04:06PM 38.3467 -89.8469 207° Southwest 433 498 43,000  Level Kansas City Center
04:07PM 38.2386 -89.9206 208° Southwest 436 502 43,000  Level Kansas City Center
04:08PM 38.1142 -90.0047 208° Southwest 436 502 43,000  Level Kansas City Center
04:09PM 38.0242 -90.0633 207° Southwest 432 497 43,000  Level Kansas City Center
04:10PM 37.8956 -90.1489 208° Southwest 433 498 43,000  Level Kansas City Center
04:11PM 37.7889 -90.2203 208° Southwest 433 498 43,000  Level Kansas City Center
04:12PM 37.6831 -90.2897 207° Southwest 430 495 43,000  Level Kansas City Center
04:13PM 37.5778 -90.3592 208° Southwest 428 493 43,000  Level Kansas City Center
04:14PM 37.4731 -90.4267 207° Southwest 424 488 43,000  Level Kansas City Center
04:15PM 37.3675 -90.4967 208° Southwest 426 490 43,000  Level Kansas City Center
04:16PM 37.2447 -90.5753 207° Southwest 427 491 43,000  Level Kansas City Center
04:17PM 37.1394 -90.6436 207° Southwest 426 490 43,000  Level Kansas City Center
04:18PM 37.0336 -90.7114 207° Southwest 428 493 43,000  Level Kansas City Center
04:19PM 36.9294 -90.7792 207° Southwest 425 489 43,000  Level Kansas City Center
04:20PM 36.8039 -90.8594 207° Southwest 424 488 43,000  Level Kansas City Center
04:21PM 36.7000 -90.9261 207° Southwest 422 486 43,000  Level Kansas City Center
04:22PM 36.5947 -90.9936 207° Southwest 423 487 43,000  Level Kansas City Center
04:23PM 36.4903 -91.0594 207° Southwest 423 487 43,000  Level Kansas City Center
04:24PM 36.3644 -91.1392 207° Southwest 422 486 43,000  Level Memphis Center
04:25PM 36.2608 -91.2061 208° Southwest 420 483 43,000  Level Memphis Center
04:27PM 36.1350 -91.2833 206° Southwest 421 484 43,000  Level Memphis Center
04:28PM 36.0300 -91.3497 207° Southwest 423 487 43,000  Level Memphis Center
04:29PM 35.9256 -91.4144 207° Southwest 422 486 43,000  Level Memphis Center
04:30PM 35.8211 -91.4808 207° Southwest 423 487 43,000  Level Memphis Center
04:31PM 35.7150 -91.5453 206° Southwest 425 489 43,000  Level Memphis Center
04:32PM 35.6100 -91.6111 207° Southwest 423 487 43,000  Level Memphis Center
04:33PM 35.4825 -91.6906 207° Southwest 426 490 43,000  Level Memphis Center
04:34PM 35.3775 -91.7544 206° Southwest 423 487 43,000  Level Memphis Center
04:35PM 35.2717 -91.8194 207° Southwest 424 488 43,000  Level Memphis Center
04:36PM 35.1658 -91.8833 206° Southwest 423 487 43,000  Level Memphis Center
04:37PM 35.0606 -91.9472 206° Southwest 422 486 43,000  Level Memphis Center
04:38PM 34.9583 -92.0111 207° Southwest 417 480 43,000  Level Memphis Center
04:39PM 34.8564 -92.0714 206° Southwest 411 473 43,000  Level Memphis Center
04:40PM 34.7328 -92.1467 207° Southwest 411 473 43,000  Level Memphis Center
04:41PM 34.6244 -92.1886 198° South 418 481 43,000  Level Memphis Center
04:42PM 34.5086 -92.2125 190° South 420 483 43,000  Level Memphis Center
04:43PM 34.3936 -92.2342 189° South 419 482 43,000  Level Memphis Center
04:44PM 34.2792 -92.2558 189° South 417 480 43,000  Level Memphis Center
04:45PM 34.1631 -92.2761 188° South 418 481 43,000  Level Memphis Center
04:46PM 34.0294 -92.3025 189° South 420 483 43,000  Level Memphis Center
04:47PM 33.9111 -92.3250 189° South 426 490 43,000  Level Memphis Center
04:48PM 33.7936 -92.3458 188° South 427 491 43,000  Level Memphis Center
04:49PM 33.6769 -92.3672 189° South 424 488 43,000  Level Memphis Center
04:50PM 33.5592 -92.3886 189° South 426 490 43,000  Level Memphis Center
04:51PM 33.4186 -92.4147 189° South 425 489 43,000  Level Memphis Center
04:52PM 33.3289 -92.4311 189° South 419 482 43,000  Level Fort Worth Center
04:53PM 33.2128 -92.4522 189° South 419 482 43,000  Level Fort Worth Center
04:54PM 33.0969 -92.4717 188° South 418 481 43,000  Level Fort Worth Center
04:55PM 32.9569 -92.4981 189° South 422 486 43,000  Level Fort Worth Center
04:56PM 32.8394 -92.5186 188° South 424 488 43,000  Level Fort Worth Center
04:57PM 32.7211 -92.5392 188° South 426 490 43,000  Level Fort Worth Center
04:58PM 32.6031 -92.5611 189° South 428 493 43,000  Level Fort Worth Center
04:59PM 32.4847 -92.5831 189° South 429 494 43,000  Level Fort Worth Center
05:01PM 32.3503 -92.6069 189° South 430 495 43,000  Level Fort Worth Center
05:02PM 32.2158 -92.6331 189° South 431 496 43,000  Level Houston Center
05:03PM 32.0956 -92.6536 188° South 437 503 43,000  Level Houston Center
05:04PM 31.9767 -92.6750 189° South 433 498 43,000  Level Houston Center
05:05PM 31.8553 -92.6953 188° South 438 504 43,000  Level Houston Center
05:06PM 31.7103 -92.7203 188° South 438 504 43,000  Level Houston Center
05:07PM 31.5900 -92.7419 189° South 438 504 43,000  Level Houston Center
05:08PM 31.4689 -92.7614 188° South 438 504 43,000  Level Houston Center
05:09PM 31.3486 -92.7850 190° South 438 504 43,000  Level Houston Center
05:10PM 31.2550 -92.8608 215° Southwest 413 475 43,000  Level Houston Center
05:11PM 31.2042 -92.9717 242° Southwest 389 448 43,000 -60 Level Houston Center
05:12PM 31.1456 -93.1017 242° Southwest 379 436 42,900 -540 Descending Houston Center
05:13PM 31.0967 -93.2083 242° Southwest 375 432 41,900 -720 Descending Houston Center
05:14PM 31.0533 -93.3022 242° Southwest 338 389 41,500 -1,020 Descending Houston Center
05:15PM 31.0128 -93.3931 243° Southwest 321 369 39,800 -1,800 Descending Houston Center
05:16PM 30.9686 -93.4906 242° Southwest 337 388 37,900 -2,100 Descending Houston Center
05:17PM 30.9097 -93.6197 242° Southwest 376 433 35,500 -2,160 Descending Houston Center
05:18PM 30.8592 -93.7311 242° Southwest 390 449 33,500 -1,920 Descending Houston Center
05:19PM 30.8092 -93.8406 242° Southwest 387 445 31,500 -1,920 Descending Houston Center
05:20PM 30.7592 -93.9503 242° Southwest 386 444 29,500 -1,980 Descending Houston Center
05:21PM 30.7061 -94.0650 242° Southwest 405 466 27,500 -2,160 Descending Houston Center
05:22PM 30.6400 -94.2069 242° Southwest 420 483 25,100 -2,160 Descending Houston Center
05:23PM 30.5853 -94.3228 241° Southwest 412 474 23,100 -1,980 Descending Houston Center
05:24PM 30.5594 -94.3825 243° Southwest 404 465 22,100 -1,860 Descending Houston Center
05:24PM 30.5333 -94.4358 240° Southwest 403 464 21,200 -2,040 Descending Houston Center
05:26PM 30.4564 -94.5756 237° Southwest 398 458 18,600 -2,040 Descending Houston Center
05:27PM 30.4025 -94.6583 233° Southwest 382 440 17,100 -1,920 Descending Houston Center
05:27PM 30.3922 -94.6736 232° Southwest 362 417 16,700 -2,160 Descending Houston Center
05:28PM 30.3447 -94.7486 234° Southwest 355 409 14,900 -2,400 Descending Houston Center
05:28PM 30.3303 -94.7711 233° Southwest 353 406 14,300 -1,860 Descending Houston Center
05:29PM 30.2853 -94.8403 233° Southwest 355 409 13,000 -1,440 Descending Houston Center
05:29PM 30.2753 -94.8556 233° Southwest 359 413 13,000  Level Houston Center
05:30PM 30.2039 -94.9661 233° Southwest 352 405 13,000 -60 Level Houston Center
05:31PM 30.1728 -95.0158 234° Southwest 330 380 12,900 -780 Descending Houston Center
05:31PM 30.1583 -95.0394 235° Southwest 293 337 12,300 -2,340 Descending Houston Center
05:32PM 30.0994 -95.0853 214° Southwest 294 338 10,500 -1,920 Descending Houston Center
05:32PM 30.0833 -95.0922 200° South 291 335 10,100 -540 Descending Houston Center
05:33PM 30.0261 -95.1169 201° Southwest 283 326 10,000  Descending Houston Center
05:33PM 30.0189 -95.1219 211° Southwest 269 310 10,100  Climbing Houston Center
05:34PM 29.9597 -95.1458 199° South 258 297 10,000  Descending Houston Center
05:34PM 29.9500 -95.1497 199° South 254 292 10,100 -420 Climbing Houston Center
05:35PM 29.8914 -95.1758 201° Southwest 262 302 9,600 -840 Descending Houston Center
05:35PM 29.8756 -95.1828 201° Southwest 264 304 9,300 -1,680 Descending Houston Center
05:36PM 29.8225 -95.2053 200° South 264 304 7,900 -1,620 Descending Houston Center
05:36PM 29.8069 -95.2131 203° Southwest 259 298 7,700 -1,800 Descending Houston Center
05:37PM 29.7422 -95.2314 194° South 255 293 6,100 -1,500 Descending Houston Center
05:37PM 29.7392 -95.2308 171° South 254 292 6,200 -120 Climbing Houston Center
05:38PM 29.6761 -95.2344 183° South 242 278 6,000 -120 Descending Houston Center
05:38PM 29.6681 -95.2347 182° South 237 273 6,100  Climbing Houston Center
05:39PM 29.6103 -95.2364 181° South 242 278 6,000  Descending Houston Center
05:39PM 29.5992 -95.2383 189° South 249 287 6,100  Climbing Houston Center
05:40PM 29.5503 -95.2533 195° South 238 274 6,000  Descending Houston Center
05:40PM 29.5425 -95.2619 224° Southwest 214 246 6,100 -720 Climbing Houston Center
05:41PM 29.4981 -95.3094 223° Southwest 216 249 5,300 -600 Descending Houston Center
05:41PM 29.4989 -95.3103 319° Northwest 216 249 5,500 -1,200 Climbing Houston Center
05:42PM 29.4511 -95.3617 223° Southwest 219 252 4,100 -1,500 Descending Houston Center
05:42PM 29.4544 -95.3575 47° Northeast 216 249 4,000 -120 Descending Houston Center
05:43PM 29.4175 -95.4044 228° Southwest 207 238 4,000 60 Level Houston Center
05:43PM 29.4181 -95.4136 274° West 180 207 4,100 -420 Climbing Houston Center
05:44PM 29.4342 -95.4525 295° West 165 190 3,600 -540 Descending Houston Center
05:44PM 29.4314 -95.4525 180° South 178 205 3,600 -1,320 Level Houston Center
05:45PM 29.4778 -95.4481 North 169 194 2,200 -1,440 Descending Houston Center
05:45PM 29.4858 -95.4439 24° Northeast 176 203 2,100 -240 Descending Houston Center
05:46PM 29.5172 -95.4169 37° Northeast 179 206 2,000  Descending Houston Center
05:46PM 29.5247 -95.4106 37° Northeast 178 205 2,100  Climbing Houston Center
05:47PM 29.5600 -95.3719 44° Northeast 175 201 2,000  Descending Houston Center
05:47PM 29.5592 -95.3728 221° Southwest 170 196 2,100 -600 Climbing Houston Center
05:48PM 29.5908 -95.3378 44° Northeast 165 190 1,400 -600 Descending Houston Center
05:48PM 29.5917 -95.3378 360° North 125 144 1,500 -660 Climbing Houston Center
05:49PM 29.6144 -95.3133 43° Northeast 121 139 800 -840 Descending Houston Center
05:49PM 29.6147 -95.3122 74° East 138 159 700 -660 Descending Houston Center
05:50PM 29.6383 -95.2861 44° Northeast 124 143 100 -600 Descending Houston Center